sensor_id;sensor_type;location;lat;lon;timestamp;P1;durP1;ratioP1;P2;durP2;ratioP2
72060;SDS011;59925;52.136;5.420;2022-08-21T00:00:28;5.73;;;2.47;;
72060;SDS011;59925;52.136;5.420;2022-08-21T00:02:58;5.35;;;2.50;;
72060;SDS011;59925;52.136;5.420;2022-08-21T00:05:27;6.03;;;2.40;;
72060;SDS011;59925;52.136;5.420;2022-08-21T00:07:54;5.35;;;2.38;;
72060;SDS011;59925;52.136;5.420;2022-08-21T00:10:21;4.53;;;3.00;;
72060;SDS011;59925;52.136;5.420;2022-08-21T00:12:48;4.50;;;2.90;;
72060;SDS011;59925;52.136;5.420;2022-08-21T00:15:16;3.92;;;2.88;;
72060;SDS011;59925;52.136;5.420;2022-08-21T00:17:46;4.50;;;2.70;;
72060;SDS011;59925;52.136;5.420;2022-08-21T00:20:13;6.88;;;3.35;;
72060;SDS011;59925;52.136;5.420;2022-08-21T00:22:41;7.88;;;2.97;;
72060;SDS011;59925;52.136;5.420;2022-08-21T00:25:09;4.70;;;2.63;;
72060;SDS011;59925;52.136;5.420;2022-08-21T00:27:36;4.90;;;2.70;;
72060;SDS011;59925;52.136;5.420;2022-08-21T00:30:04;4.80;;;2.80;;
72060;SDS011;59925;52.136;5.420;2022-08-21T00:32:32;5.10;;;2.80;;
72060;SDS011;59925;52.136;5.420;2022-08-21T00:34:59;4.53;;;2.80;;
72060;SDS011;59925;52.136;5.420;2022-08-21T00:37:26;4.53;;;3.00;;
72060;SDS011;59925;52.136;5.420;2022-08-21T00:39:55;4.43;;;2.63;;
72060;SDS011;59925;52.136;5.420;2022-08-21T00:42:22;4.30;;;2.35;;
72060;SDS011;59925;52.136;5.420;2022-08-21T00:44:49;5.57;;;3.00;;
72060;SDS011;59925;52.136;5.420;2022-08-21T00:47:16;4.97;;;3.22;;
72060;SDS011;59925;52.136;5.420;2022-08-21T00:49:44;7.43;;;3.30;;
72060;SDS011;59925;52.136;5.420;2022-08-21T00:52:13;6.43;;;2.65;;
72060;SDS011;59925;52.136;5.420;2022-08-21T00:54:43;4.05;;;2.53;;
72060;SDS011;59925;52.136;5.420;2022-08-21T00:57:34;5.57;;;2.95;;
72060;SDS011;59925;52.136;5.420;2022-08-21T01:00:22;8.10;;;2.45;;
72060;SDS011;59925;52.136;5.420;2022-08-21T01:02:51;5.33;;;2.63;;
72060;SDS011;59925;52.136;5.420;2022-08-21T01:05:17;5.00;;;2.60;;
72060;SDS011;59925;52.136;5.420;2022-08-21T01:07:43;4.35;;;2.45;;
72060;SDS011;59925;52.136;5.420;2022-08-21T01:10:11;3.70;;;2.10;;
72060;SDS011;59925;52.136;5.420;2022-08-21T01:12:50;3.30;;;2.17;;
72060;SDS011;59925;52.136;5.420;2022-08-21T01:15:18;3.80;;;1.93;;
72060;SDS011;59925;52.136;5.420;2022-08-21T01:17:47;4.65;;;2.10;;
72060;SDS011;59925;52.136;5.420;2022-08-21T01:20:15;5.13;;;2.13;;
72060;SDS011;59925;52.136;5.420;2022-08-21T01:22:42;7.15;;;2.53;;
72060;SDS011;59925;52.136;5.420;2022-08-21T01:25:09;2.90;;;2.10;;
72060;SDS011;59925;52.136;5.420;2022-08-21T01:27:38;5.63;;;2.00;;
72060;SDS011;59925;52.136;5.420;2022-08-21T01:30:09;4.63;;;2.17;;
72060;SDS011;59925;52.136;5.420;2022-08-21T01:32:36;6.60;;;1.92;;
72060;SDS011;59925;52.136;5.420;2022-08-21T01:35:03;4.70;;;2.15;;
72060;SDS011;59925;52.136;5.420;2022-08-21T01:37:30;4.05;;;2.50;;
72060;SDS011;59925;52.136;5.420;2022-08-21T01:39:57;3.87;;;2.40;;
72060;SDS011;59925;52.136;5.420;2022-08-21T01:42:24;5.00;;;2.03;;
72060;SDS011;59925;52.136;5.420;2022-08-21T01:44:51;3.42;;;2.00;;
72060;SDS011;59925;52.136;5.420;2022-08-21T01:47:21;4.28;;;1.88;;
72060;SDS011;59925;52.136;5.420;2022-08-21T01:49:48;3.97;;;1.70;;
72060;SDS011;59925;52.136;5.420;2022-08-21T01:52:15;4.47;;;2.30;;
72060;SDS011;59925;52.136;5.420;2022-08-21T01:54:42;5.40;;;3.17;;
72060;SDS011;59925;52.136;5.420;2022-08-21T01:57:09;5.55;;;2.60;;
72060;SDS011;59925;52.136;5.420;2022-08-21T01:59:36;5.25;;;2.40;;
72060;SDS011;59925;52.136;5.420;2022-08-21T02:02:03;5.07;;;2.60;;
72060;SDS011;59925;52.136;5.420;2022-08-21T02:04:30;3.23;;;2.20;;
72060;SDS011;59925;52.136;5.420;2022-08-21T02:06:57;5.88;;;2.70;;
72060;SDS011;59925;52.136;5.420;2022-08-21T02:09:24;3.75;;;2.40;;
72060;SDS011;59925;52.136;5.420;2022-08-21T02:11:50;5.10;;;2.67;;
72060;SDS011;59925;52.136;5.420;2022-08-21T02:14:17;6.20;;;2.80;;
72060;SDS011;59925;52.136;5.420;2022-08-21T02:16:58;4.37;;;2.57;;
72060;SDS011;59925;52.136;5.420;2022-08-21T02:19:34;4.65;;;2.40;;
72060;SDS011;59925;52.136;5.420;2022-08-21T02:22:06;5.35;;;2.50;;
72060;SDS011;59925;52.136;5.420;2022-08-21T02:24:34;6.00;;;2.78;;
72060;SDS011;59925;52.136;5.420;2022-08-21T02:27:03;5.65;;;2.17;;
72060;SDS011;59925;52.136;5.420;2022-08-21T02:29:30;4.80;;;2.17;;
72060;SDS011;59925;52.136;5.420;2022-08-21T02:31:56;4.10;;;2.25;;
72060;SDS011;59925;52.136;5.420;2022-08-21T02:34:23;4.28;;;2.15;;
72060;SDS011;59925;52.136;5.420;2022-08-21T02:36:54;3.15;;;2.10;;
72060;SDS011;59925;52.136;5.420;2022-08-21T02:39:25;3.83;;;2.20;;
72060;SDS011;59925;52.136;5.420;2022-08-21T02:41:52;3.23;;;1.90;;
72060;SDS011;59925;52.136;5.420;2022-08-21T02:44:18;3.95;;;2.28;;
72060;SDS011;59925;52.136;5.420;2022-08-21T02:46:45;5.32;;;2.40;;
72060;SDS011;59925;52.136;5.420;2022-08-21T02:49:11;3.50;;;2.47;;
72060;SDS011;59925;52.136;5.420;2022-08-21T02:51:38;5.05;;;2.47;;
72060;SDS011;59925;52.136;5.420;2022-08-21T02:54:04;5.30;;;2.17;;
72060;SDS011;59925;52.136;5.420;2022-08-21T02:56:30;4.68;;;2.55;;
72060;SDS011;59925;52.136;5.420;2022-08-21T02:58:57;5.65;;;2.58;;
72060;SDS011;59925;52.136;5.420;2022-08-21T03:01:23;3.90;;;2.47;;
72060;SDS011;59925;52.136;5.420;2022-08-21T03:03:50;3.35;;;2.05;;
72060;SDS011;59925;52.136;5.420;2022-08-21T03:06:18;4.33;;;2.23;;
72060;SDS011;59925;52.136;5.420;2022-08-21T03:08:47;4.80;;;2.45;;
72060;SDS011;59925;52.136;5.420;2022-08-21T03:11:14;4.63;;;1.77;;
72060;SDS011;59925;52.136;5.420;2022-08-21T03:13:41;4.30;;;2.60;;
72060;SDS011;59925;52.136;5.420;2022-08-21T03:16:08;6.93;;;2.80;;
72060;SDS011;59925;52.136;5.420;2022-08-21T03:18:35;6.40;;;3.00;;
72060;SDS011;59925;52.136;5.420;2022-08-21T03:21:02;6.90;;;2.88;;
72060;SDS011;59925;52.136;5.420;2022-08-21T03:23:31;6.00;;;3.17;;
72060;SDS011;59925;52.136;5.420;2022-08-21T03:25:59;7.05;;;3.05;;
72060;SDS011;59925;52.136;5.420;2022-08-21T03:28:25;5.18;;;3.38;;
72060;SDS011;59925;52.136;5.420;2022-08-21T03:30:52;5.97;;;2.90;;
72060;SDS011;59925;52.136;5.420;2022-08-21T03:33:19;4.05;;;2.60;;
72060;SDS011;59925;52.136;5.420;2022-08-21T03:35:52;7.47;;;3.15;;
72060;SDS011;59925;52.136;5.420;2022-08-21T03:38:25;6.00;;;3.03;;
72060;SDS011;59925;52.136;5.420;2022-08-21T03:40:53;4.18;;;2.67;;
72060;SDS011;59925;52.136;5.420;2022-08-21T03:43:20;5.53;;;2.53;;
72060;SDS011;59925;52.136;5.420;2022-08-21T03:45:47;3.97;;;2.33;;
72060;SDS011;59925;52.136;5.420;2022-08-21T03:48:13;5.28;;;2.90;;
72060;SDS011;59925;52.136;5.420;2022-08-21T03:50:42;6.78;;;2.75;;
72060;SDS011;59925;52.136;5.420;2022-08-21T03:53:10;5.35;;;2.70;;
72060;SDS011;59925;52.136;5.420;2022-08-21T03:55:42;5.03;;;2.50;;
72060;SDS011;59925;52.136;5.420;2022-08-21T03:58:14;7.60;;;3.00;;
72060;SDS011;59925;52.136;5.420;2022-08-21T04:00:47;5.53;;;2.75;;
72060;SDS011;59925;52.136;5.420;2022-08-21T04:03:15;4.28;;;2.30;;
72060;SDS011;59925;52.136;5.420;2022-08-21T04:05:42;4.90;;;3.10;;
72060;SDS011;59925;52.136;5.420;2022-08-21T04:08:08;6.77;;;2.87;;
72060;SDS011;59925;52.136;5.420;2022-08-21T04:10:35;6.95;;;3.40;;
72060;SDS011;59925;52.136;5.420;2022-08-21T04:13:04;5.75;;;2.92;;
72060;SDS011;59925;52.136;5.420;2022-08-21T04:15:32;6.15;;;3.55;;
72060;SDS011;59925;52.136;5.420;2022-08-21T04:17:59;9.95;;;3.25;;
72060;SDS011;59925;52.136;5.420;2022-08-21T04:20:26;5.60;;;3.33;;
72060;SDS011;59925;52.136;5.420;2022-08-21T04:22:53;5.80;;;3.15;;
72060;SDS011;59925;52.136;5.420;2022-08-21T04:25:20;9.07;;;3.97;;
72060;SDS011;59925;52.136;5.420;2022-08-21T04:27:48;8.30;;;4.07;;
72060;SDS011;59925;52.136;5.420;2022-08-21T04:30:14;11.02;;;4.60;;
72060;SDS011;59925;52.136;5.420;2022-08-21T04:32:43;9.70;;;4.83;;
72060;SDS011;59925;52.136;5.420;2022-08-21T04:35:11;9.88;;;5.53;;
72060;SDS011;59925;52.136;5.420;2022-08-21T04:37:40;10.02;;;4.93;;
72060;SDS011;59925;52.136;5.420;2022-08-21T04:40:08;12.13;;;5.30;;
72060;SDS011;59925;52.136;5.420;2022-08-21T04:42:44;10.35;;;5.20;;
72060;SDS011;59925;52.136;5.420;2022-08-21T04:45:20;9.30;;;5.03;;
72060;SDS011;59925;52.136;5.420;2022-08-21T04:47:53;8.40;;;5.18;;
72060;SDS011;59925;52.136;5.420;2022-08-21T04:50:41;9.80;;;5.13;;
72060;SDS011;59925;52.136;5.420;2022-08-21T04:53:18;11.27;;;4.93;;
72060;SDS011;59925;52.136;5.420;2022-08-21T04:55:48;10.45;;;5.60;;
72060;SDS011;59925;52.136;5.420;2022-08-21T04:58:16;12.67;;;5.30;;
72060;SDS011;59925;52.136;5.420;2022-08-21T05:00:46;12.82;;;5.28;;
72060;SDS011;59925;52.136;5.420;2022-08-21T05:03:14;11.65;;;4.93;;
72060;SDS011;59925;52.136;5.420;2022-08-21T05:05:43;8.20;;;5.28;;
72060;SDS011;59925;52.136;5.420;2022-08-21T05:08:11;11.20;;;4.47;;
72060;SDS011;59925;52.136;5.420;2022-08-21T05:10:41;9.53;;;3.90;;
72060;SDS011;59925;52.136;5.420;2022-08-21T05:13:11;9.68;;;3.92;;
72060;SDS011;59925;52.136;5.420;2022-08-21T05:15:39;6.10;;;4.13;;
72060;SDS011;59925;52.136;5.420;2022-08-21T05:18:06;9.10;;;4.78;;
72060;SDS011;59925;52.136;5.420;2022-08-21T05:20:32;7.90;;;4.47;;
72060;SDS011;59925;52.136;5.420;2022-08-21T05:23:09;6.77;;;4.33;;
72060;SDS011;59925;52.136;5.420;2022-08-21T05:25:38;12.95;;;5.20;;
72060;SDS011;59925;52.136;5.420;2022-08-21T05:28:06;10.93;;;4.70;;
72060;SDS011;59925;52.136;5.420;2022-08-21T05:30:33;10.10;;;5.45;;
72060;SDS011;59925;52.136;5.420;2022-08-21T05:33:01;9.88;;;5.07;;
72060;SDS011;59925;52.136;5.420;2022-08-21T05:35:29;9.83;;;4.60;;
72060;SDS011;59925;52.136;5.420;2022-08-21T05:37:57;8.73;;;4.47;;
72060;SDS011;59925;52.136;5.420;2022-08-21T05:40:24;9.05;;;4.50;;
72060;SDS011;59925;52.136;5.420;2022-08-21T05:42:51;12.80;;;5.57;;
72060;SDS011;59925;52.136;5.420;2022-08-21T05:45:21;13.27;;;5.43;;
72060;SDS011;59925;52.136;5.420;2022-08-21T05:48:09;10.30;;;4.97;;
72060;SDS011;59925;52.136;5.420;2022-08-21T05:50:41;9.80;;;4.43;;
72060;SDS011;59925;52.136;5.420;2022-08-21T05:53:09;7.78;;;4.78;;
72060;SDS011;59925;52.136;5.420;2022-08-21T05:55:37;11.90;;;4.28;;
72060;SDS011;59925;52.136;5.420;2022-08-21T05:58:11;9.35;;;4.50;;
72060;SDS011;59925;52.136;5.420;2022-08-21T06:00:37;8.33;;;3.87;;
72060;SDS011;59925;52.136;5.420;2022-08-21T06:03:04;10.77;;;4.40;;
72060;SDS011;59925;52.136;5.420;2022-08-21T06:05:30;8.30;;;4.43;;
72060;SDS011;59925;52.136;5.420;2022-08-21T06:08:03;8.82;;;4.43;;
72060;SDS011;59925;52.136;5.420;2022-08-21T06:10:29;9.15;;;4.15;;
72060;SDS011;59925;52.136;5.420;2022-08-21T06:12:56;8.83;;;4.30;;
72060;SDS011;59925;52.136;5.420;2022-08-21T06:15:23;8.82;;;3.83;;
72060;SDS011;59925;52.136;5.420;2022-08-21T06:17:49;9.18;;;4.10;;
72060;SDS011;59925;52.136;5.420;2022-08-21T06:20:16;8.80;;;4.47;;
72060;SDS011;59925;52.136;5.420;2022-08-21T06:22:42;12.10;;;4.68;;
72060;SDS011;59925;52.136;5.420;2022-08-21T06:25:08;7.57;;;3.67;;
72060;SDS011;59925;52.136;5.420;2022-08-21T06:27:35;8.90;;;3.92;;
72060;SDS011;59925;52.136;5.420;2022-08-21T06:30:02;8.82;;;4.60;;
72060;SDS011;59925;52.136;5.420;2022-08-21T06:32:30;11.15;;;4.13;;
72060;SDS011;59925;52.136;5.420;2022-08-21T06:34:57;9.02;;;3.92;;
72060;SDS011;59925;52.136;5.420;2022-08-21T06:37:23;9.83;;;4.53;;
72060;SDS011;59925;52.136;5.420;2022-08-21T06:39:50;11.15;;;4.15;;
72060;SDS011;59925;52.136;5.420;2022-08-21T06:42:17;10.10;;;3.50;;
72060;SDS011;59925;52.136;5.420;2022-08-21T06:44:44;14.32;;;4.03;;
72060;SDS011;59925;52.136;5.420;2022-08-21T06:47:11;7.78;;;3.60;;
72060;SDS011;59925;52.136;5.420;2022-08-21T06:49:37;11.20;;;3.63;;
72060;SDS011;59925;52.136;5.420;2022-08-21T06:52:07;11.40;;;4.10;;
72060;SDS011;59925;52.136;5.420;2022-08-21T06:54:36;8.32;;;3.40;;
72060;SDS011;59925;52.136;5.420;2022-08-21T06:57:03;10.73;;;3.63;;
72060;SDS011;59925;52.136;5.420;2022-08-21T06:59:29;10.88;;;3.95;;
72060;SDS011;59925;52.136;5.420;2022-08-21T07:01:57;9.50;;;3.90;;
72060;SDS011;59925;52.136;5.420;2022-08-21T07:04:24;7.57;;;3.83;;
72060;SDS011;59925;52.136;5.420;2022-08-21T07:06:50;10.75;;;3.85;;
72060;SDS011;59925;52.136;5.420;2022-08-21T07:09:17;10.18;;;3.67;;
72060;SDS011;59925;52.136;5.420;2022-08-21T07:11:50;9.48;;;3.78;;
72060;SDS011;59925;52.136;5.420;2022-08-21T07:14:19;9.73;;;3.63;;
72060;SDS011;59925;52.136;5.420;2022-08-21T07:16:46;12.25;;;3.90;;
72060;SDS011;59925;52.136;5.420;2022-08-21T07:19:13;12.15;;;3.67;;
72060;SDS011;59925;52.136;5.420;2022-08-21T07:21:40;8.50;;;3.92;;
72060;SDS011;59925;52.136;5.420;2022-08-21T07:24:06;9.38;;;3.88;;
72060;SDS011;59925;52.136;5.420;2022-08-21T07:26:33;9.03;;;3.33;;
72060;SDS011;59925;52.136;5.420;2022-08-21T07:28:59;10.88;;;4.13;;
72060;SDS011;59925;52.136;5.420;2022-08-21T07:31:26;8.98;;;3.70;;
72060;SDS011;59925;52.136;5.420;2022-08-21T07:33:52;7.85;;;3.97;;
72060;SDS011;59925;52.136;5.420;2022-08-21T07:36:19;11.20;;;3.60;;
72060;SDS011;59925;52.136;5.420;2022-08-21T07:38:46;9.30;;;3.40;;
72060;SDS011;59925;52.136;5.420;2022-08-21T07:41:13;9.68;;;3.45;;
72060;SDS011;59925;52.136;5.420;2022-08-21T07:43:43;10.07;;;3.35;;
72060;SDS011;59925;52.136;5.420;2022-08-21T07:46:11;9.98;;;3.00;;
72060;SDS011;59925;52.136;5.420;2022-08-21T07:48:38;12.10;;;3.20;;
72060;SDS011;59925;52.136;5.420;2022-08-21T07:51:14;9.47;;;3.33;;
72060;SDS011;59925;52.136;5.420;2022-08-21T07:53:45;7.70;;;2.95;;
72060;SDS011;59925;52.136;5.420;2022-08-21T07:56:14;9.73;;;2.78;;
72060;SDS011;59925;52.136;5.420;2022-08-21T07:58:40;10.05;;;3.20;;
72060;SDS011;59925;52.136;5.420;2022-08-21T08:01:07;7.07;;;2.42;;
72060;SDS011;59925;52.136;5.420;2022-08-21T08:03:34;10.40;;;3.30;;
72060;SDS011;59925;52.136;5.420;2022-08-21T08:06:01;8.23;;;2.50;;
72060;SDS011;59925;52.136;5.420;2022-08-21T08:08:30;6.28;;;2.40;;
72060;SDS011;59925;52.136;5.420;2022-08-21T08:10:57;9.30;;;2.78;;
72060;SDS011;59925;52.136;5.420;2022-08-21T08:13:25;10.63;;;2.90;;
72060;SDS011;59925;52.136;5.420;2022-08-21T08:15:51;9.10;;;2.30;;
72060;SDS011;59925;52.136;5.420;2022-08-21T08:18:17;11.93;;;2.80;;
72060;SDS011;59925;52.136;5.420;2022-08-21T08:20:44;8.88;;;3.22;;
72060;SDS011;59925;52.136;5.420;2022-08-21T08:23:13;6.38;;;2.80;;
72060;SDS011;59925;52.136;5.420;2022-08-21T08:25:40;8.90;;;2.90;;
72060;SDS011;59925;52.136;5.420;2022-08-21T08:28:07;10.43;;;2.70;;
72060;SDS011;59925;52.136;5.420;2022-08-21T08:30:42;8.20;;;2.70;;
72060;SDS011;59925;52.136;5.420;2022-08-21T08:33:09;7.88;;;2.90;;
72060;SDS011;59925;52.136;5.420;2022-08-21T08:35:35;14.57;;;3.22;;
72060;SDS011;59925;52.136;5.420;2022-08-21T08:38:04;9.93;;;3.70;;
72060;SDS011;59925;52.136;5.420;2022-08-21T08:40:40;7.50;;;2.50;;
72060;SDS011;59925;52.136;5.420;2022-08-21T08:43:17;5.90;;;2.53;;
72060;SDS011;59925;52.136;5.420;2022-08-21T08:45:46;7.15;;;2.33;;
72060;SDS011;59925;52.136;5.420;2022-08-21T08:48:26;11.90;;;2.65;;
72060;SDS011;59925;52.136;5.420;2022-08-21T08:50:57;10.07;;;2.58;;
72060;SDS011;59925;52.136;5.420;2022-08-21T08:53:31;11.27;;;2.70;;
72060;SDS011;59925;52.136;5.420;2022-08-21T08:56:01;8.35;;;2.20;;
72060;SDS011;59925;52.136;5.420;2022-08-21T08:58:37;8.55;;;2.08;;
72060;SDS011;59925;52.136;5.420;2022-08-21T09:01:11;5.55;;;1.83;;
72060;SDS011;59925;52.136;5.420;2022-08-21T09:03:43;6.57;;;1.92;;
72060;SDS011;59925;52.136;5.420;2022-08-21T09:06:31;8.50;;;1.90;;
72060;SDS011;59925;52.136;5.420;2022-08-21T09:11:48;10.85;;;2.25;;
72060;SDS011;59925;52.136;5.420;2022-08-21T09:14:37;8.45;;;2.20;;
72060;SDS011;59925;52.136;5.420;2022-08-21T09:25:42;8.02;;;2.30;;
72060;SDS011;59925;52.136;5.420;2022-08-21T09:28:17;5.90;;;2.20;;
72060;SDS011;59925;52.136;5.420;2022-08-21T09:30:43;7.68;;;1.63;;
72060;SDS011;59925;52.136;5.420;2022-08-21T09:33:11;6.43;;;1.73;;
72060;SDS011;59925;52.136;5.420;2022-08-21T09:35:48;8.93;;;2.35;;
72060;SDS011;59925;52.136;5.420;2022-08-21T09:38:24;9.02;;;2.00;;
72060;SDS011;59925;52.136;5.420;2022-08-21T09:40:59;6.15;;;1.77;;
72060;SDS011;59925;52.136;5.420;2022-08-21T09:43:31;6.07;;;2.10;;
72060;SDS011;59925;52.136;5.420;2022-08-21T09:46:06;7.57;;;1.90;;
72060;SDS011;59925;52.136;5.420;2022-08-21T09:48:46;7.10;;;2.10;;
72060;SDS011;59925;52.136;5.420;2022-08-21T09:51:18;7.55;;;2.05;;
72060;SDS011;59925;52.136;5.420;2022-08-21T09:53:55;5.97;;;1.80;;
72060;SDS011;59925;52.136;5.420;2022-08-21T09:56:31;8.90;;;1.83;;
72060;SDS011;59925;52.136;5.420;2022-08-21T10:01:50;6.88;;;2.15;;
72060;SDS011;59925;52.136;5.420;2022-08-21T10:04:22;8.55;;;2.00;;
72060;SDS011;59925;52.136;5.420;2022-08-21T10:06:50;6.82;;;1.63;;
72060;SDS011;59925;52.136;5.420;2022-08-21T10:09:20;9.20;;;1.80;;
72060;SDS011;59925;52.136;5.420;2022-08-21T10:11:57;7.07;;;2.00;;
72060;SDS011;59925;52.136;5.420;2022-08-21T10:14:44;4.10;;;1.48;;
72060;SDS011;59925;52.136;5.420;2022-08-21T10:20:25;7.32;;;1.90;;
72060;SDS011;59925;52.136;5.420;2022-08-21T10:25:44;8.73;;;2.10;;
72060;SDS011;59925;52.136;5.420;2022-08-21T10:34:24;5.97;;;1.67;;
72060;SDS011;59925;52.136;5.420;2022-08-21T10:39:46;4.30;;;1.60;;
72060;SDS011;59925;52.136;5.420;2022-08-21T10:42:32;8.07;;;1.60;;
72060;SDS011;59925;52.136;5.420;2022-08-21T10:47:58;7.95;;;2.20;;
72060;SDS011;59925;52.136;5.420;2022-08-21T10:50:31;5.65;;;1.63;;
72060;SDS011;59925;52.136;5.420;2022-08-21T10:56:30;7.13;;;1.85;;
72060;SDS011;59925;52.136;5.420;2022-08-21T10:59:02;4.15;;;1.60;;
72060;SDS011;59925;52.136;5.420;2022-08-21T11:01:39;5.53;;;1.83;;
72060;SDS011;59925;52.136;5.420;2022-08-21T11:04:30;5.70;;;1.67;;
72060;SDS011;59925;52.136;5.420;2022-08-21T11:07:20;9.77;;;1.97;;
72060;SDS011;59925;52.136;5.420;2022-08-21T11:09:57;4.70;;;1.50;;
72060;SDS011;59925;52.136;5.420;2022-08-21T11:12:35;5.95;;;1.33;;
72060;SDS011;59925;52.136;5.420;2022-08-21T11:18:29;4.50;;;1.83;;
72060;SDS011;59925;52.136;5.420;2022-08-21T11:21:34;4.90;;;1.70;;
72060;SDS011;59925;52.136;5.420;2022-08-21T11:29:41;8.57;;;1.88;;
72060;SDS011;59925;52.136;5.420;2022-08-21T11:43:17;7.80;;;1.83;;
72060;SDS011;59925;52.136;5.420;2022-08-21T11:46:00;5.93;;;1.63;;
72060;SDS011;59925;52.136;5.420;2022-08-21T11:48:49;5.77;;;1.50;;
72060;SDS011;59925;52.136;5.420;2022-08-21T11:51:30;6.93;;;1.80;;
72060;SDS011;59925;52.136;5.420;2022-08-21T11:57:07;5.72;;;1.70;;
72060;SDS011;59925;52.136;5.420;2022-08-21T11:59:55;4.32;;;1.60;;
72060;SDS011;59925;52.136;5.420;2022-08-21T12:02:29;6.10;;;1.67;;
72060;SDS011;59925;52.136;5.420;2022-08-21T12:05:01;4.35;;;1.83;;
72060;SDS011;59925;52.136;5.420;2022-08-21T12:07:41;6.38;;;2.05;;
72060;SDS011;59925;52.136;5.420;2022-08-21T12:10:13;5.30;;;1.83;;
72060;SDS011;59925;52.136;5.420;2022-08-21T12:12:43;5.15;;;2.00;;
72060;SDS011;59925;52.136;5.420;2022-08-21T12:25:42;5.13;;;2.00;;
72060;SDS011;59925;52.136;5.420;2022-08-21T12:28:21;5.77;;;1.80;;
72060;SDS011;59925;52.136;5.420;2022-08-21T12:30:49;4.05;;;1.80;;
72060;SDS011;59925;52.136;5.420;2022-08-21T12:33:30;7.03;;;2.00;;
72060;SDS011;59925;52.136;5.420;2022-08-21T12:39:11;6.97;;;1.88;;
72060;SDS011;59925;52.136;5.420;2022-08-21T12:44:37;9.00;;;1.95;;
72060;SDS011;59925;52.136;5.420;2022-08-21T12:47:16;7.35;;;2.50;;
72060;SDS011;59925;52.136;5.420;2022-08-21T12:49:54;6.05;;;1.80;;
72060;SDS011;59925;52.136;5.420;2022-08-21T12:52:30;7.13;;;2.28;;
72060;SDS011;59925;52.136;5.420;2022-08-21T12:55:05;4.57;;;1.57;;
72060;SDS011;59925;52.136;5.420;2022-08-21T12:57:35;6.05;;;1.38;;
72060;SDS011;59925;52.136;5.420;2022-08-21T13:00:05;6.00;;;1.77;;
72060;SDS011;59925;52.136;5.420;2022-08-21T13:02:38;6.53;;;1.60;;
72060;SDS011;59925;52.136;5.420;2022-08-21T13:05:14;7.28;;;1.77;;
72060;SDS011;59925;52.136;5.420;2022-08-21T13:07:46;4.87;;;1.60;;
72060;SDS011;59925;52.136;5.420;2022-08-21T13:10:16;4.13;;;1.55;;
72060;SDS011;59925;52.136;5.420;2022-08-21T13:12:46;5.28;;;1.77;;
72060;SDS011;59925;52.136;5.420;2022-08-21T13:15:13;5.63;;;1.92;;
72060;SDS011;59925;52.136;5.420;2022-08-21T13:17:42;5.30;;;2.10;;
72060;SDS011;59925;52.136;5.420;2022-08-21T13:20:24;4.37;;;1.80;;
72060;SDS011;59925;52.136;5.420;2022-08-21T13:22:54;5.07;;;1.90;;
72060;SDS011;59925;52.136;5.420;2022-08-21T13:25:21;6.30;;;2.03;;
72060;SDS011;59925;52.136;5.420;2022-08-21T13:28:00;8.52;;;1.63;;
72060;SDS011;59925;52.136;5.420;2022-08-21T13:30:27;5.53;;;2.00;;
72060;SDS011;59925;52.136;5.420;2022-08-21T13:32:59;5.77;;;1.80;;
72060;SDS011;59925;52.136;5.420;2022-08-21T13:35:31;7.00;;;1.70;;
72060;SDS011;59925;52.136;5.420;2022-08-21T13:38:17;4.65;;;1.77;;
72060;SDS011;59925;52.136;5.420;2022-08-21T13:40:54;3.85;;;1.75;;
72060;SDS011;59925;52.136;5.420;2022-08-21T13:43:26;6.03;;;1.70;;
72060;SDS011;59925;52.136;5.420;2022-08-21T13:45:56;5.97;;;1.53;;
72060;SDS011;59925;52.136;5.420;2022-08-21T13:48:25;4.35;;;1.80;;
72060;SDS011;59925;52.136;5.420;2022-08-21T13:50:54;4.72;;;1.60;;
72060;SDS011;59925;52.136;5.420;2022-08-21T13:53:22;6.95;;;1.80;;
72060;SDS011;59925;52.136;5.420;2022-08-21T13:55:55;5.65;;;1.77;;
72060;SDS011;59925;52.136;5.420;2022-08-21T13:58:27;5.07;;;1.60;;
72060;SDS011;59925;52.136;5.420;2022-08-21T14:00:56;5.68;;;1.70;;
72060;SDS011;59925;52.136;5.420;2022-08-21T14:06:11;4.90;;;1.60;;
72060;SDS011;59925;52.136;5.420;2022-08-21T14:08:46;7.07;;;1.70;;
72060;SDS011;59925;52.136;5.420;2022-08-21T14:11:16;4.60;;;1.70;;
72060;SDS011;59925;52.136;5.420;2022-08-21T14:13:55;4.90;;;1.35;;
72060;SDS011;59925;52.136;5.420;2022-08-21T14:16:43;5.93;;;2.10;;
72060;SDS011;59925;52.136;5.420;2022-08-21T14:19:19;4.22;;;1.60;;
72060;SDS011;59925;52.136;5.420;2022-08-21T14:21:47;6.55;;;1.73;;
72060;SDS011;59925;52.136;5.420;2022-08-21T14:24:24;5.20;;;1.60;;
72060;SDS011;59925;52.136;5.420;2022-08-21T14:27:04;4.20;;;2.10;;
72060;SDS011;59925;52.136;5.420;2022-08-21T14:29:40;5.28;;;1.67;;
72060;SDS011;59925;52.136;5.420;2022-08-21T14:32:11;5.15;;;1.70;;
72060;SDS011;59925;52.136;5.420;2022-08-21T14:34:50;3.75;;;1.60;;
72060;SDS011;59925;52.136;5.420;2022-08-21T14:37:17;5.47;;;1.90;;
72060;SDS011;59925;52.136;5.420;2022-08-21T14:39:43;6.68;;;1.67;;
72060;SDS011;59925;52.136;5.420;2022-08-21T14:42:11;4.43;;;1.58;;
72060;SDS011;59925;52.136;5.420;2022-08-21T14:44:38;5.03;;;1.45;;
72060;SDS011;59925;52.136;5.420;2022-08-21T14:47:05;5.55;;;1.60;;
72060;SDS011;59925;52.136;5.420;2022-08-21T14:49:31;4.03;;;1.50;;
72060;SDS011;59925;52.136;5.420;2022-08-21T14:51:57;4.28;;;1.67;;
72060;SDS011;59925;52.136;5.420;2022-08-21T14:54:25;3.50;;;1.58;;
72060;SDS011;59925;52.136;5.420;2022-08-21T14:57:01;8.18;;;1.90;;
72060;SDS011;59925;52.136;5.420;2022-08-21T14:59:36;4.47;;;1.60;;
72060;SDS011;59925;52.136;5.420;2022-08-21T15:02:05;5.47;;;2.10;;
72060;SDS011;59925;52.136;5.420;2022-08-21T15:04:33;303.33;;;245.50;;
72060;SDS011;59925;52.136;5.420;2022-08-21T15:07:00;172.38;;;123.50;;
72060;SDS011;59925;52.136;5.420;2022-08-21T15:09:26;126.22;;;99.22;;
72060;SDS011;59925;52.136;5.420;2022-08-21T15:11:55;275.65;;;209.75;;
72060;SDS011;59925;52.136;5.420;2022-08-21T15:14:24;107.57;;;85.77;;
72060;SDS011;59925;52.136;5.420;2022-08-21T15:16:53;212.40;;;191.88;;
72060;SDS011;59925;52.136;5.420;2022-08-21T15:19:20;80.38;;;73.18;;
72060;SDS011;59925;52.136;5.420;2022-08-21T15:21:47;35.97;;;32.83;;
72060;SDS011;59925;52.136;5.420;2022-08-21T15:24:13;9.82;;;7.60;;
72060;SDS011;59925;52.136;5.420;2022-08-21T15:26:40;6.00;;;3.60;;
72060;SDS011;59925;52.136;5.420;2022-08-21T15:29:07;3.88;;;2.35;;
72060;SDS011;59925;52.136;5.420;2022-08-21T15:31:35;5.03;;;2.00;;
72060;SDS011;59925;52.136;5.420;2022-08-21T15:34:02;6.85;;;2.60;;
72060;SDS011;59925;52.136;5.420;2022-08-21T15:36:29;6.28;;;1.90;;
72060;SDS011;59925;52.136;5.420;2022-08-21T15:38:55;5.53;;;1.97;;
72060;SDS011;59925;52.136;5.420;2022-08-21T15:41:22;5.13;;;1.60;;
72060;SDS011;59925;52.136;5.420;2022-08-21T15:43:49;2.78;;;1.40;;
72060;SDS011;59925;52.136;5.420;2022-08-21T15:46:18;4.65;;;1.80;;
72060;SDS011;59925;52.136;5.420;2022-08-21T15:48:46;6.30;;;2.08;;
72060;SDS011;59925;52.136;5.420;2022-08-21T15:51:13;3.73;;;2.03;;
72060;SDS011;59925;52.136;5.420;2022-08-21T15:53:42;23.30;;;14.60;;
72060;SDS011;59925;52.136;5.420;2022-08-21T15:56:13;15.43;;;9.82;;
72060;SDS011;59925;52.136;5.420;2022-08-21T15:58:46;31.40;;;21.42;;
72060;SDS011;59925;52.136;5.420;2022-08-21T16:01:12;29.90;;;22.98;;
72060;SDS011;59925;52.136;5.420;2022-08-21T16:03:39;62.83;;;40.53;;
72060;SDS011;59925;52.136;5.420;2022-08-21T16:06:05;19.45;;;9.05;;
72060;SDS011;59925;52.136;5.420;2022-08-21T16:08:32;6.45;;;2.53;;
72060;SDS011;59925;52.136;5.420;2022-08-21T16:10:59;10.02;;;1.70;;
72060;SDS011;59925;52.136;5.420;2022-08-21T16:13:29;4.75;;;1.73;;
72060;SDS011;59925;52.136;5.420;2022-08-21T16:16:02;6.40;;;1.90;;
72060;SDS011;59925;52.136;5.420;2022-08-21T16:18:31;5.47;;;1.30;;
72060;SDS011;59925;52.136;5.420;2022-08-21T16:20:58;7.57;;;1.70;;